Terminal Aerodrome Forecast
Issued by NWS

Home | Current Version | Previous Version | Text Only | Print | Product List | Glossary On
Versions: 1 2 3 4 5 6 7 8 9 10 11 12 13 14 15 16 17
000
FTUS44 KMAF 031727
TAFPEQ
TAF
KPEQ 031727Z 0318/0418 35009KT P6SM OVC007
      TEMPO 0318/0322 2SM -RA BR OVC004
     FM040800 33008KT 2SM -RA BR OVC003
      TEMPO 0412/0416 1 1/2SM -RA BR=

USA.gov is the U.S. government's official web portal to all federal, state and local government web resources and services.